F/V Gulf Stream — FGA5720 — position and weather

sailwx.info

Track history (hours):
 
Tides and Currents Weather Stations Pressure Air Temp Water Temp Dewpoint Dewpoint Depression Visibility Wind Speed Wind Dir Waves Ship Positions

F/V Gulf Stream

Last reported at 2017-Sep-02 07:01 UTC. Time now 2017-Sep-24 06:45 UTC.
Position N 46°41' W 002°14'.
Warning: this ship's position is 21 days out of date.

Length 12 m.

Type: Fishing. MMSI: 227316330.

Date/timePositionNaut miles runAvg speedWind from/ knotsBaromVisibWave heightAir tempDewpointWater temp
2017-Sep-02 07:01N 46°41' W 002°14'  
2017-Aug-29 08:19N 46°41' W 002°16'3 7.7
2017-Aug-29 08:00N 46°43' W 002°13'2 1.3
2017-Aug-29 06:45N 46°42' W 002°15'1 0.9
2017-Aug-29 05:39N 46°41' W 002°16'1 5.2
2017-Aug-29 05:31N 46°42' W 002°15'1 0.5
2017-Aug-29 04:11N 46°42' W 002°16'1 4.0
2017-Aug-29 04:00N 46°42' W 002°15'1 1.9
2017-Aug-29 03:29N 46°42' W 002°17'  
2017-Aug-26 08:26N 46°43' W 002°18'3 6.2
2017-Aug-26 07:55N 46°42' W 002°13'1 2.8
2017-Aug-26 07:30N 46°43' W 002°12'1 1.4
2017-Aug-26 06:49N 46°43' W 002°13'1 2.1
2017-Aug-26 06:30N 46°43' W 002°13'1 2.1
2017-Aug-26 05:50N 46°43' W 002°15'1 2.5
2017-Aug-26 05:27N 46°43' W 002°13'1 1.5
2017-Aug-26 04:48N 46°42' W 002°14'1 4.7
2017-Aug-26 04:30N 46°43' W 002°12'1 1.2
2017-Aug-26 04:00N 46°43' W 002°12'2 4.6
2017-Aug-26 03:30N 46°43' W 002°16'  
Track history (hours):
 
Tides and Currents Weather Stations Pressure Air Temp Water Temp Dewpoint Dewpoint Depression Visibility Wind Speed Wind Dir Waves Ship Positions

F/V Gulf Stream

Last reported at 2017-Sep-02 07:01 UTC. Time now 2017-Sep-24 06:45 UTC.
Position N 46°41' W 002°14'.
Warning: this ship's position is 21 days out of date.

Length 12 m.

Type: Fishing. MMSI: 227316330.

Date/timePositionNaut miles runAvg speedWind from/ knotsBaromVisibWave heightAir tempDewpointWater temp
2017-Sep-02 07:01N 46°41' W 002°14'  
2017-Aug-29 08:19N 46°41' W 002°16'3 7.7
2017-Aug-29 08:00N 46°43' W 002°13'2 1.3
2017-Aug-29 06:45N 46°42' W 002°15'1 0.9
2017-Aug-29 05:39N 46°41' W 002°16'1 5.2
2017-Aug-29 05:31N 46°42' W 002°15'1 0.5
2017-Aug-29 04:11N 46°42' W 002°16'1 4.0
2017-Aug-29 04:00N 46°42' W 002°15'1 1.9
2017-Aug-29 03:29N 46°42' W 002°17'  
2017-Aug-26 08:26N 46°43' W 002°18'3 6.2
2017-Aug-26 07:55N 46°42' W 002°13'1 2.8
2017-Aug-26 07:30N 46°43' W 002°12'1 1.4
2017-Aug-26 06:49N 46°43' W 002°13'1 2.1
2017-Aug-26 06:30N 46°43' W 002°13'1 2.1
2017-Aug-26 05:50N 46°43' W 002°15'1 2.5
2017-Aug-26 05:27N 46°43' W 002°13'1 1.5
2017-Aug-26 04:48N 46°42' W 002°14'1 4.7
2017-Aug-26 04:30N 46°43' W 002°12'1 1.2
2017-Aug-26 04:00N 46°43' W 002°12'2 4.6
2017-Aug-26 03:30N 46°43' W 002°16'  

Dump ship's entire track history